sensor_id;sensor_type;location;lat;lon;timestamp;P1;durP1;ratioP1;P2;durP2;ratioP2
75971;SDS011;64651;47.540;19.088;2023-02-22T00:02:28;9.30;;;4.00;;
75971;SDS011;64651;47.540;19.088;2023-02-22T00:07:30;10.93;;;4.30;;
75971;SDS011;64651;47.540;19.088;2023-02-22T00:12:32;9.03;;;3.90;;
75971;SDS011;64651;47.540;19.088;2023-02-22T00:17:34;9.68;;;3.50;;
75971;SDS011;64651;47.540;19.088;2023-02-22T00:22:37;9.63;;;3.80;;
75971;SDS011;64651;47.540;19.088;2023-02-22T00:27:39;9.30;;;3.83;;
75971;SDS011;64651;47.540;19.088;2023-02-22T00:32:41;10.07;;;4.32;;
75971;SDS011;64651;47.540;19.088;2023-02-22T00:37:46;9.73;;;3.90;;
75971;SDS011;64651;47.540;19.088;2023-02-22T00:42:49;11.68;;;4.12;;
75971;SDS011;64651;47.540;19.088;2023-02-22T00:47:52;9.88;;;3.97;;
75971;SDS011;64651;47.540;19.088;2023-02-22T00:52:56;10.27;;;4.00;;
75971;SDS011;64651;47.540;19.088;2023-02-22T00:57:59;10.40;;;4.18;;
75971;SDS011;64651;47.540;19.088;2023-02-22T01:03:03;10.77;;;4.20;;
75971;SDS011;64651;47.540;19.088;2023-02-22T01:08:10;10.10;;;4.18;;
75971;SDS011;64651;47.540;19.088;2023-02-22T01:13:14;10.45;;;4.40;;
75971;SDS011;64651;47.540;19.088;2023-02-22T01:18:19;10.50;;;3.67;;
75971;SDS011;64651;47.540;19.088;2023-02-22T01:23:22;9.48;;;3.92;;
75971;SDS011;64651;47.540;19.088;2023-02-22T01:28:24;10.87;;;4.10;;
75971;SDS011;64651;47.540;19.088;2023-02-22T01:33:27;10.80;;;4.35;;
75971;SDS011;64651;47.540;19.088;2023-02-22T01:38:29;10.80;;;4.50;;
75971;SDS011;64651;47.540;19.088;2023-02-22T01:43:31;11.07;;;4.07;;
75971;SDS011;64651;47.540;19.088;2023-02-22T01:53:41;9.87;;;4.00;;
75971;SDS011;64651;47.540;19.088;2023-02-22T01:58:49;9.70;;;4.32;;
75971;SDS011;64651;47.540;19.088;2023-02-22T02:03:58;9.73;;;4.07;;
75971;SDS011;64651;47.540;19.088;2023-02-22T02:14:20;10.30;;;4.03;;
75971;SDS011;64651;47.540;19.088;2023-02-22T02:19:28;10.53;;;4.27;;
75971;SDS011;64651;47.540;19.088;2023-02-22T02:24:50;9.55;;;4.28;;
75971;SDS011;64651;47.540;19.088;2023-02-22T02:40:11;10.18;;;3.92;;
75971;SDS011;64651;47.540;19.088;2023-02-22T02:45:23;10.70;;;4.00;;
75971;SDS011;64651;47.540;19.088;2023-02-22T02:50:40;11.35;;;4.20;;
75971;SDS011;64651;47.540;19.088;2023-02-22T02:55:45;9.57;;;4.07;;
75971;SDS011;64651;47.540;19.088;2023-02-22T03:00:48;10.57;;;4.10;;
75971;SDS011;64651;47.540;19.088;2023-02-22T03:11:50;10.73;;;4.37;;
75971;SDS011;64651;47.540;19.088;2023-02-22T03:22:21;10.23;;;4.43;;
75971;SDS011;64651;47.540;19.088;2023-02-22T03:27:31;10.90;;;4.13;;
75971;SDS011;64651;47.540;19.088;2023-02-22T03:32:38;10.30;;;4.30;;
75971;SDS011;64651;47.540;19.088;2023-02-22T03:37:44;11.23;;;4.87;;
75971;SDS011;64651;47.540;19.088;2023-02-22T03:42:52;11.18;;;4.70;;
75971;SDS011;64651;47.540;19.088;2023-02-22T03:48:08;10.48;;;4.18;;
75971;SDS011;64651;47.540;19.088;2023-02-22T03:53:16;11.87;;;4.53;;
75971;SDS011;64651;47.540;19.088;2023-02-22T03:58:20;11.12;;;4.50;;
75971;SDS011;64651;47.540;19.088;2023-02-22T04:03:24;10.80;;;4.57;;
75971;SDS011;64651;47.540;19.088;2023-02-22T04:08:27;10.38;;;4.43;;
75971;SDS011;64651;47.540;19.088;2023-02-22T04:13:29;11.57;;;4.90;;
75971;SDS011;64651;47.540;19.088;2023-02-22T04:18:31;12.43;;;4.83;;
75971;SDS011;64651;47.540;19.088;2023-02-22T04:23:33;10.63;;;4.78;;
75971;SDS011;64651;47.540;19.088;2023-02-22T04:28:35;10.63;;;4.83;;
75971;SDS011;64651;47.540;19.088;2023-02-22T04:33:38;10.77;;;5.07;;
75971;SDS011;64651;47.540;19.088;2023-02-22T04:38:40;11.70;;;5.12;;
75971;SDS011;64651;47.540;19.088;2023-02-22T04:43:43;10.50;;;5.07;;
75971;SDS011;64651;47.540;19.088;2023-02-22T04:48:45;11.90;;;5.60;;
75971;SDS011;64651;47.540;19.088;2023-02-22T04:53:47;12.90;;;5.13;;
75971;SDS011;64651;47.540;19.088;2023-02-22T04:58:49;13.20;;;5.32;;
75971;SDS011;64651;47.540;19.088;2023-02-22T05:03:52;13.02;;;5.62;;
75971;SDS011;64651;47.540;19.088;2023-02-22T05:08:54;11.47;;;5.03;;
75971;SDS011;64651;47.540;19.088;2023-02-22T05:13:56;12.40;;;5.50;;
75971;SDS011;64651;47.540;19.088;2023-02-22T05:18:59;11.90;;;5.40;;
75971;SDS011;64651;47.540;19.088;2023-02-22T05:24:01;11.23;;;5.10;;
75971;SDS011;64651;47.540;19.088;2023-02-22T05:29:03;15.40;;;5.62;;
75971;SDS011;64651;47.540;19.088;2023-02-22T05:34:05;15.63;;;7.17;;
75971;SDS011;64651;47.540;19.088;2023-02-22T05:39:08;14.35;;;6.20;;
75971;SDS011;64651;47.540;19.088;2023-02-22T05:44:10;12.80;;;6.00;;
75971;SDS011;64651;47.540;19.088;2023-02-22T05:49:12;13.80;;;6.15;;
75971;SDS011;64651;47.540;19.088;2023-02-22T05:54:14;13.98;;;6.40;;
75971;SDS011;64651;47.540;19.088;2023-02-22T05:59:16;13.97;;;6.40;;
75971;SDS011;64651;47.540;19.088;2023-02-22T06:04:18;14.02;;;6.00;;
75971;SDS011;64651;47.540;19.088;2023-02-22T06:09:21;14.17;;;6.17;;
75971;SDS011;64651;47.540;19.088;2023-02-22T06:14:24;14.02;;;6.43;;
75971;SDS011;64651;47.540;19.088;2023-02-22T06:19:26;13.80;;;6.15;;
75971;SDS011;64651;47.540;19.088;2023-02-22T06:24:28;13.10;;;5.50;;
75971;SDS011;64651;47.540;19.088;2023-02-22T06:29:30;12.65;;;5.90;;
75971;SDS011;64651;47.540;19.088;2023-02-22T06:34:33;13.00;;;5.87;;
75971;SDS011;64651;47.540;19.088;2023-02-22T06:39:35;13.85;;;6.20;;
75971;SDS011;64651;47.540;19.088;2023-02-22T06:44:37;18.33;;;6.30;;
75971;SDS011;64651;47.540;19.088;2023-02-22T06:49:39;12.70;;;6.00;;
75971;SDS011;64651;47.540;19.088;2023-02-22T06:54:42;14.30;;;6.32;;
75971;SDS011;64651;47.540;19.088;2023-02-22T06:59:44;13.00;;;6.23;;
75971;SDS011;64651;47.540;19.088;2023-02-22T07:04:49;13.32;;;6.35;;
75971;SDS011;64651;47.540;19.088;2023-02-22T07:09:51;15.25;;;6.93;;
75971;SDS011;64651;47.540;19.088;2023-02-22T07:14:54;14.30;;;6.33;;
75971;SDS011;64651;47.540;19.088;2023-02-22T07:19:57;14.93;;;7.10;;
75971;SDS011;64651;47.540;19.088;2023-02-22T07:24:59;16.63;;;7.47;;
75971;SDS011;64651;47.540;19.088;2023-02-22T07:30:01;14.90;;;6.60;;
75971;SDS011;64651;47.540;19.088;2023-02-22T07:35:03;13.75;;;6.57;;
75971;SDS011;64651;47.540;19.088;2023-02-22T07:40:06;14.10;;;6.87;;
75971;SDS011;64651;47.540;19.088;2023-02-22T07:45:08;16.37;;;7.20;;
75971;SDS011;64651;47.540;19.088;2023-02-22T07:50:11;12.90;;;6.73;;
75971;SDS011;64651;47.540;19.088;2023-02-22T07:55:18;14.02;;;6.85;;
75971;SDS011;64651;47.540;19.088;2023-02-22T08:00:23;13.45;;;6.25;;
75971;SDS011;64651;47.540;19.088;2023-02-22T08:05:28;13.63;;;6.60;;
75971;SDS011;64651;47.540;19.088;2023-02-22T08:10:32;15.07;;;6.95;;
75971;SDS011;64651;47.540;19.088;2023-02-22T08:15:37;14.50;;;6.23;;
75971;SDS011;64651;47.540;19.088;2023-02-22T08:20:41;13.98;;;6.70;;
75971;SDS011;64651;47.540;19.088;2023-02-22T08:25:44;15.65;;;6.95;;
75971;SDS011;64651;47.540;19.088;2023-02-22T08:30:47;16.13;;;7.30;;
75971;SDS011;64651;47.540;19.088;2023-02-22T08:35:49;15.68;;;6.80;;
75971;SDS011;64651;47.540;19.088;2023-02-22T08:40:52;15.73;;;7.07;;
75971;SDS011;64651;47.540;19.088;2023-02-22T08:45:54;15.40;;;6.55;;
75971;SDS011;64651;47.540;19.088;2023-02-22T08:50:58;14.27;;;7.10;;
75971;SDS011;64651;47.540;19.088;2023-02-22T08:56:00;14.30;;;7.20;;
75971;SDS011;64651;47.540;19.088;2023-02-22T09:01:03;13.43;;;6.90;;
75971;SDS011;64651;47.540;19.088;2023-02-22T09:06:05;12.83;;;6.90;;
75971;SDS011;64651;47.540;19.088;2023-02-22T09:11:08;13.35;;;6.87;;
75971;SDS011;64651;47.540;19.088;2023-02-22T09:16:11;12.55;;;6.50;;
75971;SDS011;64651;47.540;19.088;2023-02-22T09:21:13;12.27;;;7.10;;
75971;SDS011;64651;47.540;19.088;2023-02-22T09:26:16;13.77;;;7.82;;
75971;SDS011;64651;47.540;19.088;2023-02-22T09:31:18;14.17;;;8.10;;
75971;SDS011;64651;47.540;19.088;2023-02-22T09:36:21;13.52;;;7.62;;
75971;SDS011;64651;47.540;19.088;2023-02-22T09:41:31;13.93;;;8.07;;
75971;SDS011;64651;47.540;19.088;2023-02-22T09:46:40;14.87;;;9.50;;
75971;SDS011;64651;47.540;19.088;2023-02-22T09:56:50;15.47;;;9.37;;
75971;SDS011;64651;47.540;19.088;2023-02-22T10:02:01;18.80;;;10.82;;
75971;SDS011;64651;47.540;19.088;2023-02-22T10:07:32;17.10;;;10.13;;
75971;SDS011;64651;47.540;19.088;2023-02-22T10:23:35;15.17;;;10.00;;
75971;SDS011;64651;47.540;19.088;2023-02-22T10:29:10;15.23;;;9.65;;
75971;SDS011;64651;47.540;19.088;2023-02-22T10:34:20;16.55;;;10.27;;
75971;SDS011;64651;47.540;19.088;2023-02-22T10:39:32;15.60;;;9.40;;
75971;SDS011;64651;47.540;19.088;2023-02-22T10:44:37;15.98;;;10.13;;
75971;SDS011;64651;47.540;19.088;2023-02-22T10:49:41;14.27;;;9.40;;
75971;SDS011;64651;47.540;19.088;2023-02-22T10:54:47;14.68;;;9.13;;
75971;SDS011;64651;47.540;19.088;2023-02-22T10:59:52;16.27;;;10.68;;
75971;SDS011;64651;47.540;19.088;2023-02-22T11:04:58;15.77;;;10.47;;
75971;SDS011;64651;47.540;19.088;2023-02-22T11:10:06;18.08;;;10.80;;
75971;SDS011;64651;47.540;19.088;2023-02-22T11:20:27;18.20;;;10.70;;
75971;SDS011;64651;47.540;19.088;2023-02-22T11:25:36;16.87;;;9.70;;
75971;SDS011;64651;47.540;19.088;2023-02-22T11:30:40;18.40;;;10.27;;
75971;SDS011;64651;47.540;19.088;2023-02-22T11:35:49;17.83;;;9.88;;
75971;SDS011;64651;47.540;19.088;2023-02-22T11:41:06;18.47;;;9.63;;
75971;SDS011;64651;47.540;19.088;2023-02-22T11:46:13;18.00;;;9.18;;
75971;SDS011;64651;47.540;19.088;2023-02-22T11:56:33;17.33;;;9.83;;
75971;SDS011;64651;47.540;19.088;2023-02-22T12:01:57;18.73;;;10.27;;
75971;SDS011;64651;47.540;19.088;2023-02-22T12:17:32;18.17;;;10.13;;
75971;SDS011;64651;47.540;19.088;2023-02-22T12:22:46;20.77;;;10.47;;
75971;SDS011;64651;47.540;19.088;2023-02-22T12:33:26;21.57;;;10.63;;
75971;SDS011;64651;47.540;19.088;2023-02-22T12:38:35;19.75;;;10.82;;
75971;SDS011;64651;47.540;19.088;2023-02-22T12:59:49;19.50;;;11.70;;
75971;SDS011;64651;47.540;19.088;2023-02-22T13:04:55;22.98;;;11.95;;
75971;SDS011;64651;47.540;19.088;2023-02-22T13:10:18;19.65;;;11.20;;
75971;SDS011;64651;47.540;19.088;2023-02-22T13:23:37;21.62;;;10.80;;
75971;SDS011;64651;47.540;19.088;2023-02-22T13:29:06;21.20;;;11.60;;
75971;SDS011;64651;47.540;19.088;2023-02-22T13:34:26;22.95;;;11.77;;
75971;SDS011;64651;47.540;19.088;2023-02-22T13:44:55;21.62;;;11.95;;
75971;SDS011;64651;47.540;19.088;2023-02-22T13:55:30;22.33;;;11.47;;
75971;SDS011;64651;47.540;19.088;2023-02-22T14:05:49;20.43;;;10.63;;
75971;SDS011;64651;47.540;19.088;2023-02-22T14:21:18;21.67;;;10.90;;
75971;SDS011;64651;47.540;19.088;2023-02-22T14:31:32;20.73;;;10.97;;
75971;SDS011;64651;47.540;19.088;2023-02-22T14:36:57;22.05;;;10.82;;
75971;SDS011;64651;47.540;19.088;2023-02-22T14:52:41;22.52;;;11.07;;
75971;SDS011;64651;47.540;19.088;2023-02-22T14:57:50;20.90;;;10.87;;
75971;SDS011;64651;47.540;19.088;2023-02-22T15:03:00;20.73;;;11.05;;
75971;SDS011;64651;47.540;19.088;2023-02-22T15:08:04;20.67;;;10.80;;
75971;SDS011;64651;47.540;19.088;2023-02-22T15:13:24;20.27;;;10.87;;
75971;SDS011;64651;47.540;19.088;2023-02-22T15:23:56;18.73;;;8.63;;
75971;SDS011;64651;47.540;19.088;2023-02-22T15:29:12;19.12;;;9.75;;
75971;SDS011;64651;47.540;19.088;2023-02-22T15:34:19;19.67;;;9.13;;
75971;SDS011;64651;47.540;19.088;2023-02-22T15:39:26;16.50;;;7.93;;
75971;SDS011;64651;47.540;19.088;2023-02-22T15:44:34;20.70;;;9.55;;
75971;SDS011;64651;47.540;19.088;2023-02-22T15:49:38;17.50;;;9.73;;
75971;SDS011;64651;47.540;19.088;2023-02-22T15:54:41;21.60;;;11.02;;
75971;SDS011;64651;47.540;19.088;2023-02-22T15:59:51;19.65;;;10.13;;
75971;SDS011;64651;47.540;19.088;2023-02-22T16:04:57;19.73;;;8.23;;
75971;SDS011;64651;47.540;19.088;2023-02-22T16:10:02;16.87;;;9.00;;
75971;SDS011;64651;47.540;19.088;2023-02-22T16:15:14;16.93;;;8.57;;
75971;SDS011;64651;47.540;19.088;2023-02-22T16:25:29;19.42;;;9.23;;
75971;SDS011;64651;47.540;19.088;2023-02-22T16:30:37;18.07;;;8.40;;
75971;SDS011;64651;47.540;19.088;2023-02-22T16:35:41;18.30;;;8.65;;
75971;SDS011;64651;47.540;19.088;2023-02-22T16:40:53;15.07;;;7.77;;
75971;SDS011;64651;47.540;19.088;2023-02-22T16:45:57;18.27;;;8.88;;
75971;SDS011;64651;47.540;19.088;2023-02-22T16:51:10;19.77;;;9.25;;
75971;SDS011;64651;47.540;19.088;2023-02-22T16:56:20;17.57;;;8.90;;
75971;SDS011;64651;47.540;19.088;2023-02-22T17:01:31;19.80;;;9.38;;
75971;SDS011;64651;47.540;19.088;2023-02-22T17:06:36;19.97;;;8.50;;
75971;SDS011;64651;47.540;19.088;2023-02-22T17:11:38;22.83;;;9.10;;
75971;SDS011;64651;47.540;19.088;2023-02-22T17:16:40;20.42;;;9.68;;
75971;SDS011;64651;47.540;19.088;2023-02-22T17:21:42;27.07;;;9.87;;
75971;SDS011;64651;47.540;19.088;2023-02-22T17:26:45;19.20;;;9.15;;
75971;SDS011;64651;47.540;19.088;2023-02-22T17:31:47;18.27;;;9.00;;
75971;SDS011;64651;47.540;19.088;2023-02-22T17:36:50;26.60;;;10.73;;
75971;SDS011;64651;47.540;19.088;2023-02-22T17:41:52;29.02;;;14.02;;
75971;SDS011;64651;47.540;19.088;2023-02-22T17:46:58;30.17;;;14.20;;
75971;SDS011;64651;47.540;19.088;2023-02-22T17:52:00;25.37;;;14.10;;
75971;SDS011;64651;47.540;19.088;2023-02-22T17:57:06;27.53;;;11.17;;
75971;SDS011;64651;47.540;19.088;2023-02-22T18:02:09;23.67;;;11.18;;
75971;SDS011;64651;47.540;19.088;2023-02-22T18:07:11;25.15;;;11.80;;
75971;SDS011;64651;47.540;19.088;2023-02-22T18:12:15;23.23;;;10.47;;
75971;SDS011;64651;47.540;19.088;2023-02-22T18:17:17;24.10;;;10.38;;
75971;SDS011;64651;47.540;19.088;2023-02-22T18:22:19;23.77;;;9.97;;
75971;SDS011;64651;47.540;19.088;2023-02-22T18:27:21;18.67;;;9.07;;
75971;SDS011;64651;47.540;19.088;2023-02-22T18:32:26;23.77;;;8.48;;
75971;SDS011;64651;47.540;19.088;2023-02-22T18:37:31;22.47;;;7.33;;
75971;SDS011;64651;47.540;19.088;2023-02-22T18:42:34;18.85;;;8.02;;
75971;SDS011;64651;47.540;19.088;2023-02-22T18:47:38;19.53;;;7.30;;
75971;SDS011;64651;47.540;19.088;2023-02-22T18:52:43;22.73;;;8.38;;
75971;SDS011;64651;47.540;19.088;2023-02-22T18:57:47;21.10;;;8.18;;
75971;SDS011;64651;47.540;19.088;2023-02-22T19:02:51;19.73;;;8.37;;
75971;SDS011;64651;47.540;19.088;2023-02-22T19:07:54;20.05;;;9.07;;
75971;SDS011;64651;47.540;19.088;2023-02-22T19:12:56;22.20;;;8.53;;
75971;SDS011;64651;47.540;19.088;2023-02-22T19:17:58;24.92;;;9.23;;
75971;SDS011;64651;47.540;19.088;2023-02-22T19:23:01;21.48;;;9.60;;
75971;SDS011;64651;47.540;19.088;2023-02-22T19:28:03;23.23;;;9.33;;
75971;SDS011;64651;47.540;19.088;2023-02-22T19:33:06;20.27;;;8.80;;
75971;SDS011;64651;47.540;19.088;2023-02-22T19:38:08;24.20;;;9.80;;
75971;SDS011;64651;47.540;19.088;2023-02-22T19:43:10;19.98;;;8.43;;
75971;SDS011;64651;47.540;19.088;2023-02-22T19:48:14;23.50;;;8.32;;
75971;SDS011;64651;47.540;19.088;2023-02-22T19:53:17;19.30;;;7.93;;
75971;SDS011;64651;47.540;19.088;2023-02-22T19:58:19;19.92;;;8.57;;
75971;SDS011;64651;47.540;19.088;2023-02-22T20:03:21;23.17;;;8.50;;
75971;SDS011;64651;47.540;19.088;2023-02-22T20:08:26;22.05;;;8.23;;
75971;SDS011;64651;47.540;19.088;2023-02-22T20:13:28;21.00;;;7.82;;
75971;SDS011;64651;47.540;19.088;2023-02-22T20:18:31;20.00;;;7.03;;
75971;SDS011;64651;47.540;19.088;2023-02-22T20:23:33;18.80;;;8.20;;
75971;SDS011;64651;47.540;19.088;2023-02-22T20:28:35;21.33;;;8.03;;
75971;SDS011;64651;47.540;19.088;2023-02-22T20:33:39;25.20;;;10.88;;
75971;SDS011;64651;47.540;19.088;2023-02-22T20:38:42;25.17;;;11.05;;
75971;SDS011;64651;47.540;19.088;2023-02-22T20:43:49;24.00;;;10.53;;
75971;SDS011;64651;47.540;19.088;2023-02-22T20:48:53;30.17;;;13.68;;
75971;SDS011;64651;47.540;19.088;2023-02-22T20:53:56;27.73;;;11.13;;
75971;SDS011;64651;47.540;19.088;2023-02-22T20:59:01;22.85;;;10.20;;
75971;SDS011;64651;47.540;19.088;2023-02-22T21:04:05;30.27;;;10.98;;
75971;SDS011;64651;47.540;19.088;2023-02-22T21:09:16;22.90;;;10.30;;
75971;SDS011;64651;47.540;19.088;2023-02-22T21:14:20;19.25;;;8.07;;
75971;SDS011;64651;47.540;19.088;2023-02-22T21:19:24;20.97;;;7.13;;
75971;SDS011;64651;47.540;19.088;2023-02-22T21:24:27;19.02;;;7.05;;
75971;SDS011;64651;47.540;19.088;2023-02-22T21:29:30;22.10;;;8.93;;
75971;SDS011;64651;47.540;19.088;2023-02-22T21:34:35;21.47;;;9.83;;
75971;SDS011;64651;47.540;19.088;2023-02-22T21:39:38;26.42;;;10.05;;
75971;SDS011;64651;47.540;19.088;2023-02-22T21:44:40;23.53;;;9.77;;
75971;SDS011;64651;47.540;19.088;2023-02-22T21:49:42;24.40;;;9.25;;
75971;SDS011;64651;47.540;19.088;2023-02-22T21:54:45;22.40;;;9.88;;
75971;SDS011;64651;47.540;19.088;2023-02-22T21:59:47;22.90;;;9.37;;
75971;SDS011;64651;47.540;19.088;2023-02-22T22:04:49;28.83;;;9.60;;
75971;SDS011;64651;47.540;19.088;2023-02-22T22:09:52;24.63;;;9.80;;
75971;SDS011;64651;47.540;19.088;2023-02-22T22:14:57;22.90;;;9.43;;
75971;SDS011;64651;47.540;19.088;2023-02-22T22:19:59;21.95;;;9.02;;
75971;SDS011;64651;47.540;19.088;2023-02-22T22:25:05;23.33;;;9.60;;
75971;SDS011;64651;47.540;19.088;2023-02-22T22:30:08;28.02;;;11.85;;
75971;SDS011;64651;47.540;19.088;2023-02-22T22:35:17;24.13;;;9.93;;
75971;SDS011;64651;47.540;19.088;2023-02-22T22:40:19;22.90;;;9.98;;
75971;SDS011;64651;47.540;19.088;2023-02-22T22:45:21;25.10;;;9.68;;
75971;SDS011;64651;47.540;19.088;2023-02-22T22:50:24;23.23;;;9.67;;
75971;SDS011;64651;47.540;19.088;2023-02-22T22:55:27;23.58;;;9.57;;
75971;SDS011;64651;47.540;19.088;2023-02-22T23:00:29;21.60;;;9.77;;
75971;SDS011;64651;47.540;19.088;2023-02-22T23:05:42;21.55;;;9.57;;
75971;SDS011;64651;47.540;19.088;2023-02-22T23:10:44;23.33;;;9.13;;
75971;SDS011;64651;47.540;19.088;2023-02-22T23:15:47;24.33;;;10.73;;
75971;SDS011;64651;47.540;19.088;2023-02-22T23:20:50;25.58;;;9.90;;
75971;SDS011;64651;47.540;19.088;2023-02-22T23:26:08;24.87;;;8.67;;
75971;SDS011;64651;47.540;19.088;2023-02-22T23:31:13;20.37;;;8.07;;
75971;SDS011;64651;47.540;19.088;2023-02-22T23:36:18;20.40;;;8.02;;
75971;SDS011;64651;47.540;19.088;2023-02-22T23:41:20;23.43;;;8.63;;
75971;SDS011;64651;47.540;19.088;2023-02-22T23:46:25;24.63;;;9.80;;
75971;SDS011;64651;47.540;19.088;2023-02-22T23:51:33;22.27;;;9.67;;
75971;SDS011;64651;47.540;19.088;2023-02-22T23:56:40;22.08;;;9.10;;
